createdAt,value
2018-06-05T00:00:05.449Z,18.64
2018-06-05T00:01:10.964Z,18.67
2018-06-05T00:02:16.481Z,18.64
2018-06-05T00:03:21.996Z,18.74
2018-06-05T00:04:27.532Z,18.70
2018-06-05T00:05:33.041Z,18.77
2018-06-05T00:06:38.565Z,18.70
2018-06-05T00:07:44.067Z,18.70
2018-06-05T00:08:49.581Z,18.74
2018-06-05T00:09:55.093Z,18.80
2018-06-05T00:11:00.621Z,18.90
2018-06-05T00:12:06.126Z,18.84
2018-06-05T00:13:11.667Z,18.83
2018-06-05T00:14:17.163Z,18.74
2018-06-05T00:15:22.688Z,18.77
2018-06-05T00:16:28.191Z,18.83
2018-06-05T00:17:33.714Z,18.79
2018-06-05T00:18:39.233Z,18.82
2018-06-05T00:19:44.742Z,18.83
2018-06-05T00:20:50.267Z,18.86
2018-06-05T00:21:55.779Z,18.77
2018-06-05T00:23:01.296Z,18.83
2018-06-05T00:24:06.877Z,18.91
2018-06-05T00:25:12.376Z,18.91
2018-06-05T00:26:17.863Z,18.91
2018-06-05T00:27:23.391Z,18.97
2018-06-05T00:28:28.875Z,18.86
2018-06-05T00:29:34.403Z,18.95
2018-06-05T00:30:39.909Z,18.86
2018-06-05T00:31:45.435Z,18.80
2018-06-05T00:32:50.940Z,18.86
2018-06-05T00:33:56.458Z,18.90
2018-06-05T00:35:01.976Z,18.90
2018-06-05T00:36:07.492Z,18.87
2018-06-05T00:37:13.006Z,18.92
2018-06-05T00:38:18.529Z,18.90
2018-06-05T00:39:24.047Z,18.92
2018-06-05T00:40:29.567Z,18.97
2018-06-05T00:41:35.075Z,18.95
2018-06-05T00:42:40.591Z,18.92
2018-06-05T00:43:46.106Z,18.94
2018-06-05T00:44:51.627Z,18.92
2018-06-05T00:45:57.154Z,18.94
2018-06-05T00:47:02.660Z,18.92
2018-06-05T00:48:08.174Z,18.94
2018-06-05T00:49:13.692Z,18.92
2018-06-05T00:50:19.209Z,18.95
2018-06-05T00:51:24.723Z,19.01
2018-06-05T00:52:30.388Z,18.95
2018-06-05T00:53:35.753Z,18.95
2018-06-05T00:54:41.273Z,18.95
2018-06-05T00:55:46.787Z,18.95
2018-06-05T00:56:52.305Z,18.94
2018-06-05T00:57:57.880Z,18.94
2018-06-05T00:59:03.342Z,18.97
2018-06-05T01:00:08.853Z,18.92
2018-06-05T01:01:14.372Z,18.91
2018-06-05T01:02:19.897Z,18.95
2018-06-05T01:03:25.404Z,18.98
2018-06-05T01:04:30.922Z,18.90
2018-06-05T01:05:36.438Z,18.98
2018-06-05T01:06:41.955Z,19.02
2018-06-05T01:07:47.470Z,19.06
2018-06-05T01:08:52.993Z,19.08
2018-06-05T01:09:58.506Z,19.01
2018-06-05T01:11:04.025Z,19.02
2018-06-05T01:12:09.544Z,19.01
2018-06-05T01:13:15.055Z,18.91
2018-06-05T01:14:20.574Z,18.94
2018-06-05T01:15:26.087Z,18.95
2018-06-05T01:16:31.619Z,18.91
2018-06-05T01:17:37.124Z,18.98
2018-06-05T01:18:42.638Z,18.94
2018-06-05T01:19:48.156Z,18.97
2018-06-05T01:20:53.669Z,18.98
2018-06-05T01:21:59.188Z,18.87
2018-06-05T01:23:04.702Z,18.98
2018-06-05T01:24:10.228Z,18.99
2018-06-05T01:25:15.741Z,18.97
2018-06-05T01:26:21.253Z,18.92
2018-06-05T01:27:26.771Z,18.92
2018-06-05T01:28:32.292Z,19.02
2018-06-05T01:29:37.808Z,18.91
2018-06-05T01:30:43.327Z,18.92
2018-06-05T01:31:48.837Z,18.94
2018-06-05T01:32:54.432Z,18.86
2018-06-05T01:33:59.870Z,18.92
2018-06-05T01:35:05.395Z,18.95
2018-06-05T01:36:10.903Z,18.92
2018-06-05T01:37:16.417Z,18.94
2018-06-05T01:38:21.940Z,19.02
2018-06-05T01:39:27.455Z,18.99
2018-06-05T01:40:32.975Z,18.95
2018-06-05T01:41:38.487Z,18.94
2018-06-05T01:42:44.002Z,19.05
2018-06-05T01:43:49.518Z,19.06
2018-06-05T01:44:55.044Z,18.94
2018-06-05T01:46:00.554Z,18.99
2018-06-05T01:47:06.072Z,18.98
2018-06-05T01:48:11.588Z,19.05
2018-06-05T01:49:17.103Z,19.06
2018-06-05T01:50:22.619Z,19.06
2018-06-05T01:51:28.135Z,19.05
2018-06-05T01:52:33.652Z,19.06
2018-06-05T01:53:39.176Z,19.08
2018-06-05T01:54:44.689Z,19.01
2018-06-05T01:55:50.206Z,19.01
2018-06-05T01:56:55.723Z,19.01
2018-06-05T01:58:01.244Z,19.06
2018-06-05T01:59:06.754Z,19.01
2018-06-05T02:00:12.366Z,18.90
2018-06-05T02:01:17.787Z,19.05
2018-06-05T02:02:23.302Z,18.97
2018-06-05T02:03:28.829Z,19.02
2018-06-05T02:04:34.337Z,18.98
2018-06-05T02:05:39.855Z,18.92
2018-06-05T02:06:45.368Z,19.02
2018-06-05T02:07:50.881Z,18.98
2018-06-05T02:08:56.400Z,19.06
2018-06-05T02:10:01.920Z,18.98
2018-06-05T02:11:07.443Z,19.02
2018-06-05T02:12:12.954Z,19.02
2018-06-05T02:13:18.473Z,19.02
2018-06-05T02:14:23.985Z,18.90
2018-06-05T02:15:29.506Z,19.06
2018-06-05T02:16:35.019Z,18.94
2018-06-05T02:17:40.544Z,19.06
2018-06-05T02:18:46.054Z,19.02
2018-06-05T02:19:51.572Z,18.97
2018-06-05T02:20:57.087Z,19.08
2018-06-05T02:22:02.609Z,19.08
2018-06-05T02:23:08.120Z,19.08
2018-06-05T02:24:13.636Z,18.98
2018-06-05T02:25:19.157Z,19.02
2018-06-05T02:26:24.676Z,19.08
2018-06-05T02:27:30.186Z,18.95
2018-06-05T02:28:35.702Z,19.02
2018-06-05T02:29:41.225Z,19.10
2018-06-05T02:30:46.742Z,18.95
2018-06-05T02:31:52.255Z,18.94
2018-06-05T02:32:57.769Z,18.94
2018-06-05T02:34:03.286Z,19.01
2018-06-05T02:35:08.805Z,18.91
2018-06-05T02:36:14.316Z,18.99
2018-06-05T02:37:19.842Z,18.91
2018-06-05T02:38:25.381Z,19.01
2018-06-05T02:39:30.867Z,18.91
2018-06-05T02:40:36.387Z,19.06
2018-06-05T02:41:41.905Z,19.02
2018-06-05T02:42:47.422Z,18.98
2018-06-05T02:43:52.946Z,18.98
2018-06-05T02:44:58.451Z,19.06
2018-06-05T02:46:03.969Z,19.02
2018-06-05T02:47:09.483Z,19.05
2018-06-05T02:48:15.003Z,19.02
2018-06-05T02:49:20.521Z,18.95
2018-06-05T02:50:26.037Z,18.94
2018-06-05T02:51:31.559Z,18.97
2018-06-05T02:52:37.075Z,18.99
2018-06-05T02:53:42.582Z,19.10
2018-06-05T02:54:48.111Z,19.11
2018-06-05T02:55:53.622Z,18.91
2018-06-05T02:56:59.136Z,18.95
2018-06-05T02:58:04.654Z,19.06
2018-06-05T02:59:10.170Z,19.08
2018-06-05T03:00:15.698Z,19.06
2018-06-05T03:01:21.205Z,19.10
2018-06-05T03:02:26.719Z,19.13
2018-06-05T03:03:32.241Z,19.08
2018-06-05T03:04:37.750Z,19.08
2018-06-05T03:05:43.271Z,19.13
2018-06-05T03:06:48.790Z,19.13
2018-06-05T03:07:54.298Z,19.17
2018-06-05T03:08:59.815Z,19.13
2018-06-05T03:10:05.335Z,19.13
2018-06-05T03:11:10.850Z,19.21
2018-06-05T03:12:16.368Z,19.13
2018-06-05T03:13:21.895Z,19.17
2018-06-05T03:14:27.406Z,19.18
2018-06-05T03:15:32.914Z,19.13
2018-06-05T03:16:38.434Z,19.13
2018-06-05T03:17:43.952Z,19.20
2018-06-05T03:18:49.473Z,19.21
2018-06-05T03:19:54.984Z,19.20
2018-06-05T03:21:00.500Z,19.24
2018-06-05T03:22:06.016Z,19.28
2018-06-05T03:23:11.532Z,19.25
2018-06-05T03:24:17.053Z,19.15
2018-06-05T03:25:22.571Z,19.13
2018-06-05T03:26:28.085Z,19.13
2018-06-05T03:27:33.604Z,19.20
2018-06-05T03:28:39.127Z,19.17
2018-06-05T03:29:44.633Z,19.13
2018-06-05T03:30:50.159Z,19.13
2018-06-05T03:31:55.669Z,19.11
2018-06-05T03:33:01.187Z,19.13
2018-06-05T03:34:06.721Z,19.17
2018-06-05T03:35:12.220Z,19.13
2018-06-05T03:36:17.735Z,19.08
2018-06-05T03:37:23.252Z,19.14
2018-06-05T03:38:28.773Z,19.10
2018-06-05T03:39:34.291Z,19.14
2018-06-05T03:40:39.805Z,19.10
2018-06-05T03:41:45.326Z,19.10
2018-06-05T03:42:50.840Z,19.17
2018-06-05T03:43:56.365Z,19.08
2018-06-05T03:45:01.870Z,19.20
2018-06-05T03:46:07.388Z,19.17
2018-06-05T03:47:12.902Z,19.10
2018-06-05T03:48:18.418Z,19.11
2018-06-05T03:49:23.941Z,19.13
2018-06-05T03:50:29.457Z,19.14
2018-06-05T03:51:34.970Z,19.06
2018-06-05T03:52:40.485Z,19.08
2018-06-05T03:53:46.017Z,19.11
2018-06-05T03:54:51.520Z,19.14
2018-06-05T03:55:57.034Z,19.11
2018-06-05T03:57:02.595Z,19.15
2018-06-05T03:58:08.075Z,19.14
2018-06-05T03:59:13.586Z,19.13
2018-06-05T04:00:19.108Z,19.10
2018-06-05T04:01:24.633Z,19.20
2018-06-05T04:02:30.136Z,19.18
2018-06-05T04:03:35.654Z,19.13
2018-06-05T04:04:41.177Z,19.17
2018-06-05T04:05:46.736Z,19.15
2018-06-05T04:06:52.201Z,19.15
2018-06-05T04:07:57.717Z,19.13
2018-06-05T04:09:03.243Z,19.13
2018-06-05T04:10:08.749Z,19.15
2018-06-05T04:11:14.269Z,19.14
2018-06-05T04:12:19.787Z,19.10
2018-06-05T04:13:25.303Z,19.13
2018-06-05T04:14:30.823Z,19.11
2018-06-05T04:15:36.336Z,19.10
2018-06-05T04:16:41.852Z,19.08
2018-06-05T04:17:47.368Z,19.08
2018-06-05T04:18:52.892Z,19.10
2018-06-05T04:19:58.405Z,19.10
2018-06-05T04:21:03.921Z,18.99
2018-06-05T04:22:09.434Z,19.08
2018-06-05T04:23:14.953Z,19.01
2018-06-05T04:24:20.474Z,19.08
2018-06-05T04:25:25.988Z,19.02
2018-06-05T04:26:31.508Z,19.06
2018-06-05T04:27:37.059Z,18.97
2018-06-05T04:28:42.537Z,19.01
2018-06-05T04:29:48.056Z,19.02
2018-06-05T04:30:53.571Z,18.95
2018-06-05T04:31:59.085Z,18.98
2018-06-05T04:33:04.600Z,18.98
2018-06-05T04:34:10.119Z,18.90
2018-06-05T04:35:15.644Z,19.01
2018-06-05T04:36:21.259Z,18.95
2018-06-05T04:37:26.676Z,18.92
2018-06-05T04:38:32.184Z,18.98
2018-06-05T04:39:37.700Z,18.99
2018-06-05T04:40:43.222Z,19.01
2018-06-05T04:41:48.745Z,18.99
2018-06-05T04:42:54.258Z,18.92
2018-06-05T04:43:59.771Z,18.94
2018-06-05T04:45:05.287Z,18.94
2018-06-05T04:46:10.805Z,18.92
2018-06-05T04:47:16.325Z,18.90
2018-06-05T04:48:21.834Z,18.82
2018-06-05T04:49:27.360Z,18.83
2018-06-05T04:50:32.867Z,18.82
2018-06-05T04:51:38.386Z,18.77
2018-06-05T04:52:43.909Z,18.79
2018-06-05T04:53:49.418Z,18.74
2018-06-05T04:54:54.935Z,18.73
2018-06-05T04:56:00.466Z,18.73
2018-06-05T04:57:05.966Z,18.62
2018-06-05T04:58:11.487Z,18.65
2018-06-05T04:59:17.004Z,18.64
2018-06-05T05:00:22.519Z,18.62
2018-06-05T05:01:28.035Z,18.62
2018-06-05T05:02:33.549Z,18.65
2018-06-05T05:03:39.069Z,18.62
2018-06-05T05:04:44.582Z,18.65
2018-06-05T05:05:50.144Z,18.64
2018-06-05T05:06:55.616Z,18.58
2018-06-05T05:08:01.129Z,18.54
2018-06-05T05:09:06.644Z,18.59
2018-06-05T05:10:12.165Z,18.55
2018-06-05T05:11:17.730Z,18.54
2018-06-05T05:12:23.196Z,18.55
2018-06-05T05:13:28.712Z,18.57
2018-06-05T05:14:34.233Z,18.54
2018-06-05T05:15:39.746Z,18.49
2018-06-05T05:16:45.278Z,18.46
2018-06-05T05:17:50.779Z,18.46
2018-06-05T05:18:56.291Z,18.47
2018-06-05T05:20:01.809Z,18.47
2018-06-05T05:21:07.332Z,18.46
2018-06-05T05:22:12.841Z,18.52
2018-06-05T05:23:18.407Z,18.40
2018-06-05T05:24:23.875Z,18.40
2018-06-05T05:25:29.404Z,18.39
2018-06-05T05:26:34.905Z,18.40
2018-06-05T05:27:40.424Z,18.33
2018-06-05T05:28:45.942Z,18.33
2018-06-05T05:29:51.461Z,18.36
2018-06-05T05:30:56.970Z,18.24
2018-06-05T05:32:02.485Z,18.22
2018-06-05T05:33:08.012Z,18.22
2018-06-05T05:34:13.519Z,18.29
2018-06-05T05:35:19.041Z,18.19
2018-06-05T05:36:24.558Z,18.18
2018-06-05T05:37:30.074Z,18.25
2018-06-05T05:38:35.590Z,18.25
2018-06-05T05:39:41.102Z,18.27
2018-06-05T05:40:46.616Z,18.15
2018-06-05T05:41:52.136Z,18.25
2018-06-05T05:42:57.649Z,18.27
2018-06-05T05:44:03.171Z,18.28
2018-06-05T05:45:08.688Z,18.28
2018-06-05T05:46:14.194Z,18.27
2018-06-05T05:47:19.715Z,18.15
2018-06-05T05:48:25.228Z,18.25
2018-06-05T05:49:30.748Z,18.25
2018-06-05T05:50:36.261Z,18.25
2018-06-05T05:51:41.778Z,18.22
2018-06-05T05:52:47.295Z,18.21
2018-06-05T05:53:52.807Z,18.19
2018-06-05T05:54:58.325Z,18.24
2018-06-05T05:56:03.842Z,18.15
2018-06-05T05:57:09.356Z,18.22
2018-06-05T05:58:14.876Z,18.25
2018-06-05T05:59:20.389Z,18.24
2018-06-05T06:00:25.911Z,18.22
2018-06-05T06:01:31.423Z,18.28
2018-06-05T06:02:36.935Z,18.28
2018-06-05T06:03:42.501Z,18.27
2018-06-05T06:04:47.966Z,18.29
2018-06-05T06:05:53.487Z,18.18
2018-06-05T06:06:58.999Z,18.25
2018-06-05T06:08:04.520Z,18.27
2018-06-05T06:09:10.047Z,18.22
2018-06-05T06:10:15.557Z,18.17
2018-06-05T06:11:21.194Z,18.24
2018-06-05T06:12:26.586Z,18.34
2018-06-05T06:13:32.100Z,18.31
2018-06-05T06:14:37.615Z,18.29
2018-06-05T06:15:43.133Z,18.31
2018-06-05T06:16:48.650Z,18.40
2018-06-05T06:17:54.177Z,18.36
2018-06-05T06:18:59.684Z,18.28
2018-06-05T06:20:05.198Z,18.33
2018-06-05T06:21:10.711Z,18.37
2018-06-05T06:22:16.232Z,18.39
2018-06-05T06:23:21.743Z,18.34
2018-06-05T06:24:27.255Z,18.34
2018-06-05T06:25:32.780Z,18.43
2018-06-05T06:26:38.288Z,18.40
2018-06-05T06:27:43.812Z,18.43
2018-06-05T06:28:49.324Z,18.42
2018-06-05T06:29:54.837Z,18.46
2018-06-05T06:31:00.356Z,18.42
2018-06-05T06:32:05.869Z,18.47
2018-06-05T06:33:11.384Z,18.46
2018-06-05T06:34:16.904Z,18.47
2018-06-05T06:35:22.430Z,18.47
2018-06-05T06:36:27.944Z,18.50
2018-06-05T06:37:33.456Z,18.54
2018-06-05T06:38:38.990Z,18.47
2018-06-05T06:39:44.492Z,18.50
2018-06-05T06:40:50.005Z,18.57
2018-06-05T06:41:55.523Z,18.55
2018-06-05T06:43:01.033Z,18.58
2018-06-05T06:44:06.550Z,18.62
2018-06-05T06:45:12.075Z,18.59
2018-06-05T06:46:17.581Z,18.59
2018-06-05T06:47:23.158Z,18.58
2018-06-05T06:48:28.614Z,18.73
2018-06-05T06:49:34.181Z,18.72
2018-06-05T06:50:39.645Z,18.61
2018-06-05T06:51:45.163Z,18.61
2018-06-05T06:52:50.679Z,18.62
2018-06-05T06:53:56.192Z,18.54
2018-06-05T06:55:01.711Z,18.55
2018-06-05T06:56:07.226Z,18.62
2018-06-05T06:57:12.743Z,18.55
2018-06-05T06:58:18.260Z,18.70
2018-06-05T06:59:23.784Z,18.61
2018-06-05T07:00:29.292Z,18.58
2018-06-05T07:01:34.810Z,18.65
2018-06-05T07:02:40.339Z,18.65
2018-06-05T07:03:45.845Z,18.67
2018-06-05T07:04:51.364Z,18.70
2018-06-05T07:05:56.875Z,18.74
2018-06-05T07:07:02.400Z,18.73
2018-06-05T07:08:07.907Z,18.76
2018-06-05T07:09:13.420Z,18.58
2018-06-05T07:10:18.940Z,18.61
2018-06-05T07:11:24.451Z,18.70
2018-06-05T07:12:29.972Z,18.57
2018-06-05T07:13:35.491Z,18.68
2018-06-05T07:14:41.009Z,18.70
2018-06-05T07:15:46.519Z,18.65
2018-06-05T07:16:52.093Z,18.61
2018-06-05T07:17:57.593Z,18.61
2018-06-05T07:19:03.077Z,18.58
2018-06-05T07:20:08.592Z,18.58
2018-06-05T07:21:14.105Z,18.67
2018-06-05T07:22:19.619Z,18.65
2018-06-05T07:23:25.140Z,18.57
2018-06-05T07:24:30.647Z,18.61
2018-06-05T07:25:36.166Z,18.73
2018-06-05T07:26:41.680Z,18.62
2018-06-05T07:27:47.201Z,18.65
2018-06-05T07:28:52.713Z,18.64
2018-06-05T07:29:58.229Z,18.73
2018-06-05T07:31:03.745Z,18.59
2018-06-05T07:32:09.267Z,18.64
2018-06-05T07:33:14.780Z,18.58
2018-06-05T07:34:20.305Z,18.65
2018-06-05T07:35:25.809Z,18.73
2018-06-05T07:36:31.333Z,18.67
2018-06-05T07:37:36.846Z,18.62
2018-06-05T07:38:42.362Z,18.73
2018-06-05T07:39:47.886Z,18.64
2018-06-05T07:40:53.397Z,18.70
2018-06-05T07:41:58.909Z,18.73
2018-06-05T07:43:04.435Z,18.76
2018-06-05T07:44:09.946Z,18.70
2018-06-05T07:45:15.465Z,18.90
2018-06-05T07:46:20.975Z,18.73
2018-06-05T07:47:26.497Z,18.76
2018-06-05T07:48:32.007Z,18.73
2018-06-05T07:49:37.650Z,18.74
2018-06-05T07:50:43.044Z,18.82
2018-06-05T07:51:48.551Z,18.79
2018-06-05T07:52:54.107Z,18.84
2018-06-05T07:53:59.592Z,18.87
2018-06-05T07:55:05.170Z,18.90
2018-06-05T07:56:10.629Z,18.94
2018-06-05T07:57:16.140Z,18.91
2018-06-05T07:58:21.657Z,19.02
2018-06-05T07:59:27.187Z,19.02
2018-06-05T08:00:32.694Z,18.95
2018-06-05T08:01:38.203Z,18.99
2018-06-05T08:02:43.725Z,18.92
2018-06-05T08:03:49.237Z,19.01
2018-06-05T08:04:54.759Z,19.05
2018-06-05T08:06:00.267Z,19.02
2018-06-05T08:07:05.786Z,19.08
2018-06-05T08:08:11.300Z,19.15
2018-06-05T08:09:16.816Z,19.14
2018-06-05T08:10:22.336Z,19.14
2018-06-05T08:11:27.850Z,19.15
2018-06-05T08:12:33.376Z,19.13
2018-06-05T08:13:38.885Z,19.18
2018-06-05T08:14:44.398Z,19.17
2018-06-05T08:15:49.916Z,19.23
2018-06-05T08:16:55.437Z,19.18
2018-06-05T08:18:00.953Z,19.25
2018-06-05T08:19:06.474Z,19.28
2018-06-05T08:20:11.988Z,19.31
2018-06-05T08:21:17.501Z,19.31
2018-06-05T08:22:23.032Z,19.29
2018-06-05T08:23:28.535Z,19.25
2018-06-05T08:24:34.055Z,19.29
2018-06-05T08:25:39.566Z,19.36
2018-06-05T08:26:45.084Z,19.32
2018-06-05T08:27:50.607Z,19.32
2018-06-05T08:28:56.118Z,19.33
2018-06-05T08:30:01.633Z,19.28
2018-06-05T08:31:07.147Z,19.35
2018-06-05T08:32:12.670Z,19.40
2018-06-05T08:33:18.190Z,19.38
2018-06-05T08:34:23.710Z,19.39
2018-06-05T08:35:29.224Z,19.46
2018-06-05T08:36:34.734Z,19.42
2018-06-05T08:37:40.258Z,19.47
2018-06-05T08:38:45.777Z,19.48
2018-06-05T08:39:51.295Z,19.46
2018-06-05T08:40:56.807Z,19.46
2018-06-05T08:42:02.321Z,19.43
2018-06-05T08:43:07.865Z,19.47
2018-06-05T08:44:13.352Z,19.50
2018-06-05T08:45:18.867Z,19.48
2018-06-05T08:46:24.380Z,19.42
2018-06-05T08:47:29.909Z,19.50
2018-06-05T08:48:35.416Z,19.57
2018-06-05T08:49:40.936Z,19.63
2018-06-05T08:50:46.468Z,19.63
2018-06-05T08:51:51.967Z,19.57
2018-06-05T08:52:57.481Z,19.58
2018-06-05T08:54:03.004Z,19.65
2018-06-05T08:55:08.539Z,19.63
2018-06-05T08:56:14.035Z,19.68
2018-06-05T08:57:19.552Z,19.69
2018-06-05T08:58:25.141Z,19.68
2018-06-05T08:59:30.598Z,19.65
2018-06-05T09:00:36.108Z,19.68
2018-06-05T09:01:41.629Z,19.70
2018-06-05T09:02:47.132Z,19.65
2018-06-05T09:03:52.652Z,19.72
2018-06-05T09:04:58.176Z,19.66
2018-06-05T09:06:03.685Z,19.66
2018-06-05T09:07:09.205Z,19.66
2018-06-05T09:08:14.717Z,19.70
2018-06-05T09:09:20.237Z,19.70
2018-06-05T09:10:25.766Z,19.70
2018-06-05T09:11:31.269Z,19.78
2018-06-05T09:12:36.788Z,19.70
2018-06-05T09:13:42.303Z,19.78
2018-06-05T09:14:47.818Z,19.80
2018-06-05T09:15:53.338Z,19.79
2018-06-05T09:16:58.854Z,19.79
2018-06-05T09:18:04.369Z,19.79
2018-06-05T09:19:09.891Z,19.72
2018-06-05T09:20:15.410Z,19.78
2018-06-05T09:21:20.928Z,19.80
2018-06-05T09:22:26.454Z,19.76
2018-06-05T09:23:31.964Z,19.79
2018-06-05T09:24:37.475Z,19.84
2018-06-05T09:25:42.993Z,19.83
2018-06-05T09:26:48.506Z,19.87
2018-06-05T09:27:54.023Z,19.88
2018-06-05T09:28:59.560Z,19.83
2018-06-05T09:30:05.060Z,19.79
2018-06-05T09:31:10.572Z,19.84
2018-06-05T09:32:16.093Z,19.84
2018-06-05T09:33:21.606Z,19.90
2018-06-05T09:34:27.137Z,19.76
2018-06-05T09:35:32.641Z,19.78
2018-06-05T09:36:38.158Z,19.78
2018-06-05T09:37:43.687Z,19.76
2018-06-05T09:38:49.190Z,19.72
2018-06-05T09:39:54.714Z,19.80
2018-06-05T09:41:00.237Z,19.86
2018-06-05T09:42:05.745Z,19.83
2018-06-05T09:43:11.259Z,19.79
2018-06-05T09:44:16.774Z,19.84
2018-06-05T09:45:22.293Z,19.84
2018-06-05T09:46:27.820Z,19.84
2018-06-05T09:47:33.347Z,19.88
2018-06-05T09:48:38.844Z,19.79
2018-06-05T09:49:44.364Z,19.88
2018-06-05T09:50:49.887Z,19.80
2018-06-05T09:51:55.412Z,19.88
2018-06-05T09:53:00.918Z,19.90
2018-06-05T09:54:06.437Z,19.97
2018-06-05T09:55:12.026Z,19.90
2018-06-05T09:56:17.468Z,19.95
2018-06-05T09:57:22.982Z,19.94
2018-06-05T09:58:28.586Z,19.95
2018-06-05T09:59:34.017Z,19.98
2018-06-05T10:00:39.538Z,19.94
2018-06-05T10:01:45.064Z,20.03
2018-06-05T10:02:50.574Z,20.06
2018-06-05T10:03:56.222Z,19.98
2018-06-05T10:05:01.622Z,19.98
2018-06-05T10:06:07.117Z,20.09
2018-06-05T10:07:12.640Z,20.05
2018-06-05T10:08:18.153Z,20.12
2018-06-05T10:09:23.673Z,20.15
2018-06-05T10:10:29.186Z,20.05
2018-06-05T10:11:34.702Z,20.20
2018-06-05T10:12:40.221Z,20.20
2018-06-05T10:13:45.748Z,20.21
2018-06-05T10:14:51.265Z,20.13
2018-06-05T10:15:56.776Z,20.20
2018-06-05T10:17:02.288Z,20.21
2018-06-05T10:18:07.808Z,20.16
2018-06-05T10:19:13.344Z,20.20
2018-06-05T10:20:18.871Z,20.13
2018-06-05T10:21:24.357Z,20.12
2018-06-05T10:22:29.888Z,20.18
2018-06-05T10:23:35.397Z,20.20
2018-06-05T10:24:40.918Z,20.27
2018-06-05T10:25:46.473Z,20.23
2018-06-05T10:26:51.955Z,20.28
2018-06-05T10:27:57.508Z,20.38
2018-06-05T10:29:03.027Z,20.33
2018-06-05T10:30:08.502Z,20.38
2018-06-05T10:31:14.014Z,20.39
2018-06-05T10:32:19.538Z,20.35
2018-06-05T10:33:25.061Z,20.43
2018-06-05T10:34:30.566Z,20.43
2018-06-05T10:35:36.085Z,20.46
2018-06-05T10:36:41.600Z,20.58
2018-06-05T10:37:47.117Z,20.51
2018-06-05T10:38:52.637Z,20.54
2018-06-05T10:39:58.156Z,20.53
2018-06-05T10:41:03.668Z,20.51
2018-06-05T10:42:09.194Z,20.58
2018-06-05T10:43:14.706Z,20.61
2018-06-05T10:44:20.221Z,20.64
2018-06-05T10:45:25.742Z,20.50
2018-06-05T10:46:31.262Z,20.54
2018-06-05T10:47:36.777Z,20.61
2018-06-05T10:48:42.292Z,20.61
2018-06-05T10:49:47.812Z,20.64
2018-06-05T10:50:53.325Z,20.66
2018-06-05T10:51:58.844Z,20.68
2018-06-05T10:53:04.471Z,20.65
2018-06-05T10:54:10.035Z,20.65
2018-06-05T10:55:15.397Z,20.65
2018-06-05T10:56:21.015Z,20.65
2018-06-05T10:57:26.431Z,20.65
2018-06-05T10:58:31.967Z,20.66
2018-06-05T10:59:37.466Z,20.68
2018-06-05T11:00:43.001Z,20.64
2018-06-05T11:01:48.508Z,20.54
2018-06-05T11:02:54.028Z,20.64
2018-06-05T11:03:59.542Z,20.65
2018-06-05T11:05:05.057Z,20.65
2018-06-05T11:06:10.633Z,20.64
2018-06-05T11:07:16.097Z,20.74
2018-06-05T11:08:21.611Z,20.66
2018-06-05T11:09:27.123Z,20.65
2018-06-05T11:10:32.643Z,20.71
2018-06-05T11:11:38.157Z,20.68
2018-06-05T11:12:43.735Z,20.56
2018-06-05T11:13:49.193Z,20.65
2018-06-05T11:14:54.715Z,20.58
2018-06-05T11:16:00.234Z,20.65
2018-06-05T11:17:05.753Z,20.66
2018-06-05T11:18:11.277Z,20.65
2018-06-05T11:19:16.781Z,20.69
2018-06-05T11:20:22.295Z,20.68
2018-06-05T11:21:27.815Z,20.65
2018-06-05T11:22:33.340Z,20.64
2018-06-05T11:23:38.870Z,20.66
2018-06-05T11:24:44.374Z,20.72
2018-06-05T11:25:49.991Z,20.71
2018-06-05T11:26:55.415Z,20.69
2018-06-05T11:28:00.938Z,20.65
2018-06-05T11:29:06.470Z,20.65
2018-06-05T11:30:11.975Z,20.62
2018-06-05T11:31:17.483Z,20.64
2018-06-05T11:32:22.992Z,20.62
2018-06-05T11:33:28.506Z,20.62
2018-06-05T11:34:34.025Z,20.64
2018-06-05T11:35:39.553Z,20.66
2018-06-05T11:36:45.071Z,20.71
2018-06-05T11:37:50.579Z,20.69
2018-06-05T11:38:56.109Z,20.74
2018-06-05T11:40:01.616Z,20.76
2018-06-05T11:41:07.143Z,20.74
2018-06-05T11:42:12.672Z,20.77
2018-06-05T11:43:18.172Z,20.83
2018-06-05T11:44:23.684Z,20.83
2018-06-05T11:45:29.201Z,20.80
2018-06-05T11:46:34.743Z,20.90
2018-06-05T11:47:40.236Z,20.83
2018-06-05T11:48:45.753Z,20.95
2018-06-05T11:49:51.271Z,20.95
2018-06-05T11:50:56.795Z,20.93
2018-06-05T11:52:02.304Z,20.84
2018-06-05T11:53:07.823Z,20.89
2018-06-05T11:54:13.407Z,20.95
2018-06-05T11:55:18.867Z,20.91
2018-06-05T11:56:24.380Z,20.87
2018-06-05T11:57:29.905Z,20.89
2018-06-05T11:58:35.414Z,20.87
2018-06-05T11:59:40.931Z,20.91
2018-06-05T12:00:46.510Z,20.99
2018-06-05T12:01:51.966Z,20.87
2018-06-05T12:02:57.483Z,20.90
2018-06-05T12:04:03.029Z,20.93
2018-06-05T12:05:08.527Z,20.84
2018-06-05T12:06:14.046Z,20.91
2018-06-05T12:07:19.559Z,20.93
2018-06-05T12:08:25.070Z,20.91
2018-06-05T12:09:30.586Z,20.91
2018-06-05T12:10:36.107Z,20.89
2018-06-05T12:11:41.622Z,20.93
2018-06-05T12:12:47.140Z,20.91
2018-06-05T12:13:52.655Z,20.99
2018-06-05T12:14:58.177Z,20.87
2018-06-05T12:16:03.693Z,20.96
2018-06-05T12:17:09.213Z,20.93
2018-06-05T12:18:14.733Z,20.89
2018-06-05T12:19:20.272Z,21.01
2018-06-05T12:20:25.762Z,20.91
2018-06-05T12:21:31.286Z,21.02
2018-06-05T12:22:36.808Z,20.98
2018-06-05T12:23:42.324Z,21.04
2018-06-05T12:24:47.845Z,20.90
2018-06-05T12:25:53.358Z,21.02
2018-06-05T12:26:58.873Z,21.04
2018-06-05T12:28:04.388Z,21.04
2018-06-05T12:29:09.909Z,21.06
2018-06-05T12:30:15.426Z,21.05
2018-06-05T12:31:21.021Z,21.17
2018-06-05T12:32:26.457Z,21.13
2018-06-05T12:33:31.976Z,21.17
2018-06-05T12:34:37.495Z,21.13
2018-06-05T12:35:43.015Z,21.16
2018-06-05T12:36:48.536Z,21.14
2018-06-05T12:37:54.044Z,21.14
2018-06-05T12:38:59.573Z,21.21
2018-06-05T12:40:05.085Z,21.30
2018-06-05T12:41:10.602Z,21.24
2018-06-05T12:42:16.121Z,21.27
2018-06-05T12:43:21.635Z,21.36
2018-06-05T12:44:27.164Z,21.21
2018-06-05T12:45:32.674Z,21.34
2018-06-05T12:46:38.197Z,21.42
2018-06-05T12:47:43.729Z,21.34
2018-06-05T12:48:49.248Z,21.41
2018-06-05T12:49:54.742Z,21.32
2018-06-05T12:51:00.263Z,21.42
2018-06-05T12:52:05.776Z,21.46
2018-06-05T12:53:11.295Z,21.42
2018-06-05T12:54:16.808Z,21.50
2018-06-05T12:55:22.351Z,21.45
2018-06-05T12:56:27.848Z,21.59
2018-06-05T12:57:33.368Z,21.56
2018-06-05T12:58:38.884Z,21.60
2018-06-05T12:59:44.403Z,21.56
2018-06-05T13:00:49.939Z,21.64
2018-06-05T13:01:55.449Z,21.66
2018-06-05T13:03:00.967Z,21.66
2018-06-05T13:04:06.475Z,21.64
2018-06-05T13:05:11.991Z,21.67
2018-06-05T13:06:17.506Z,21.76
2018-06-05T13:07:23.030Z,21.79
2018-06-05T13:08:28.543Z,21.75
2018-06-05T13:09:34.070Z,21.76
2018-06-05T13:10:39.581Z,21.88
2018-06-05T13:11:45.136Z,21.83
2018-06-05T13:12:50.628Z,21.95
2018-06-05T13:13:56.141Z,21.94
2018-06-05T13:15:01.652Z,21.95
2018-06-05T13:16:07.181Z,21.98
2018-06-05T13:17:12.699Z,21.98
2018-06-05T13:18:18.228Z,22.02
2018-06-05T13:19:23.725Z,22.06
2018-06-05T13:20:29.253Z,22.04
2018-06-05T13:21:34.762Z,22.06
2018-06-05T13:22:40.352Z,22.10
2018-06-05T13:23:45.804Z,22.09
2018-06-05T13:24:51.322Z,22.16
2018-06-05T13:25:56.845Z,22.14
2018-06-05T13:27:02.366Z,22.12
2018-06-05T13:28:07.884Z,22.20
2018-06-05T13:29:13.404Z,22.17
2018-06-05T13:30:18.923Z,22.27
2018-06-05T13:31:24.427Z,22.22
2018-06-05T13:32:29.947Z,22.27
2018-06-05T13:33:35.475Z,22.34
2018-06-05T13:34:40.985Z,22.32
2018-06-05T13:35:46.520Z,22.39
2018-06-05T13:36:52.020Z,22.39
2018-06-05T13:37:57.538Z,22.39
2018-06-05T13:39:03.059Z,22.52
2018-06-05T13:40:08.579Z,22.44
2018-06-05T13:41:14.102Z,22.46
2018-06-05T13:42:19.615Z,22.53
2018-06-05T13:43:25.134Z,22.56
2018-06-05T13:44:30.692Z,22.54
2018-06-05T13:45:36.175Z,22.62
2018-06-05T13:46:41.693Z,22.56
2018-06-05T13:47:47.216Z,22.65
2018-06-05T13:48:52.730Z,22.69
2018-06-05T13:49:58.259Z,22.68
2018-06-05T13:51:03.775Z,22.71
2018-06-05T13:52:09.345Z,22.71
2018-06-05T13:53:14.804Z,22.72
2018-06-05T13:54:20.323Z,22.82
2018-06-05T13:55:25.848Z,22.72
2018-06-05T13:56:31.356Z,22.75
2018-06-05T13:57:36.876Z,22.84
2018-06-05T13:58:42.395Z,22.83
2018-06-05T13:59:47.909Z,22.92
2018-06-05T14:00:53.431Z,22.93
2018-06-05T14:01:58.952Z,22.93
2018-06-05T14:03:04.475Z,23.12